LFSB METAR :   2017/02/25 23:00 LFSB 252300Z 20005KT CAVOK 02/M00 Q1019 NOSIG

TAF  2017/02/25 18:21 TAF LFSB 251700Z 2518/2618 VRB04KT CAVOK PROB30 TEMPO 2523/2606 4000 BR